Disclaimer

Please do not use the information listed here in-flight or in-navigation, as they are not provided to us by the airports but are provided by volunteers, so they might be outdated.

Search


Regions


Airport information page

Radio informations:
Tower (TWR) - 118.1 MHz
Ground (GND) - 121.9 MHz
Approach (APP) - 118.1 MHz

Airport informations:
Latitude: 38° 28' 05.59" N
Longitude: 043° 19' 56.28" E
Elevation: 5480 feet - 1670 meters
Operating hours: Remarks
Operating agency: Civil government, landing fees and diplomatic clearance may be required
Timezone: UTC+2(+3DT) - Dates notified by NOTAM
Fuel: JP-4, Wide cut turbine fuel MIL Spec T-5624

Aviation Gasoline (AVGAS), octane unknown.

Runway information:
03/21 - 9022 x 148 feet< - >2750 x 45 meters

Recent METARs:
LTCI 182250Z 10003KT 9999 FEW035 SCT100 M00/M02 Q1023 NOSIG
LTCI 182250Z 10003KT 9999 FEW035 SCT100 M00/M02 Q1023 NOSIG
LTCI 182350Z VRB02KT 9999 FEW035 M02/M03 Q1022 NOSIG

Airport on the map: